sensor_id;sensor_type;location;lat;lon;timestamp;pressure;altitude;pressure_sealevel;temperature;humidity
21781;BME280;52576;53.614;9.894;2022-07-29T00:00:15;101612.06;;;12.91;81.93
21781;BME280;52576;53.614;9.894;2022-07-29T00:01:17;101612.28;;;12.90;81.85
21781;BME280;52576;53.614;9.894;2022-07-29T00:02:20;101616.84;;;12.89;81.92
21781;BME280;52576;53.614;9.894;2022-07-29T00:03:22;101620.53;;;12.88;81.71
21781;BME280;52576;53.614;9.894;2022-07-29T00:04:26;101616.19;;;12.87;81.82
21781;BME280;52576;53.614;9.894;2022-07-29T00:05:28;101619.88;;;12.86;82.01
21781;BME280;52576;53.614;9.894;2022-07-29T00:06:32;101618.25;;;12.85;81.93
21781;BME280;52576;53.614;9.894;2022-07-29T00:07:34;101618.44;;;12.84;81.85
21781;BME280;52576;53.614;9.894;2022-07-29T00:08:37;101613.28;;;12.82;82.24
21781;BME280;52576;53.614;9.894;2022-07-29T00:09:39;101619.66;;;12.81;81.90
21781;BME280;52576;53.614;9.894;2022-07-29T00:10:52;101612.63;;;12.80;82.36
21781;BME280;52576;53.614;9.894;2022-07-29T00:11:56;101614.69;;;12.78;81.97
21781;BME280;52576;53.614;9.894;2022-07-29T00:13:01;101619.22;;;12.78;82.20
21781;BME280;52576;53.614;9.894;2022-07-29T00:14:04;101626.66;;;12.76;82.50
21781;BME280;52576;53.614;9.894;2022-07-29T00:15:08;101613.44;;;12.74;82.50
21781;BME280;52576;53.614;9.894;2022-07-29T00:16:11;101613.81;;;12.71;82.09
21781;BME280;52576;53.614;9.894;2022-07-29T00:17:13;101609.47;;;12.70;82.15
21781;BME280;52576;53.614;9.894;2022-07-29T00:18:19;101609.69;;;12.69;82.45
21781;BME280;52576;53.614;9.894;2022-07-29T00:19:21;101616.25;;;12.66;82.60
21781;BME280;52576;53.614;9.894;2022-07-29T00:20:25;101608.41;;;12.64;82.31
21781;BME280;52576;53.614;9.894;2022-07-29T00:21:27;101608.59;;;12.63;82.12
21781;BME280;52576;53.614;9.894;2022-07-29T00:22:32;101597.22;;;12.61;82.35
21781;BME280;52576;53.614;9.894;2022-07-29T00:23:34;101606.31;;;12.60;82.71
21781;BME280;52576;53.614;9.894;2022-07-29T00:24:37;101605.66;;;12.58;82.97
21781;BME280;52576;53.614;9.894;2022-07-29T00:25:39;101597.81;;;12.56;82.70
21781;BME280;52576;53.614;9.894;2022-07-29T00:26:42;101603.38;;;12.55;82.59
21781;BME280;52576;53.614;9.894;2022-07-29T00:27:44;101606.28;;;12.53;83.14
21781;BME280;52576;53.614;9.894;2022-07-29T00:28:48;101605.63;;;12.51;83.07
21781;BME280;52576;53.614;9.894;2022-07-29T00:29:50;101605.84;;;12.50;83.37
21781;BME280;52576;53.614;9.894;2022-07-29T00:30:53;101604.19;;;12.49;83.31
21781;BME280;52576;53.614;9.894;2022-07-29T00:31:55;101606.22;;;12.47;83.27
21781;BME280;52576;53.614;9.894;2022-07-29T00:32:58;101598.19;;;12.47;83.29
21781;BME280;52576;53.614;9.894;2022-07-29T00:34:00;101602.06;;;12.44;83.30
21781;BME280;52576;53.614;9.894;2022-07-29T00:35:04;101594.22;;;12.43;83.79
21781;BME280;52576;53.614;9.894;2022-07-29T00:36:25;101590.91;;;12.41;83.60
21781;BME280;52576;53.614;9.894;2022-07-29T00:37:27;101596.66;;;12.38;83.72
21781;BME280;52576;53.614;9.894;2022-07-29T00:38:31;101596.66;;;12.38;83.78
21781;BME280;52576;53.614;9.894;2022-07-29T00:39:34;101595.00;;;12.37;84.33
21781;BME280;52576;53.614;9.894;2022-07-29T00:40:36;101589.66;;;12.37;84.25
21781;BME280;52576;53.614;9.894;2022-07-29T00:41:43;101593.34;;;12.36;84.20
21781;BME280;52576;53.614;9.894;2022-07-29T00:42:47;101596.03;;;12.36;84.57
21781;BME280;52576;53.614;9.894;2022-07-29T00:43:50;101585.47;;;12.34;84.32
21781;BME280;52576;53.614;9.894;2022-07-29T00:44:52;101589.19;;;12.33;84.39
21781;BME280;52576;53.614;9.894;2022-07-29T00:45:55;101585.69;;;12.33;84.47
21781;BME280;52576;53.614;9.894;2022-07-29T00:46:57;101587.53;;;12.32;84.78
21781;BME280;52576;53.614;9.894;2022-07-29T00:48:00;101590.41;;;12.31;84.65
21781;BME280;52576;53.614;9.894;2022-07-29T00:49:03;101588.75;;;12.30;85.00
21781;BME280;52576;53.614;9.894;2022-07-29T00:50:08;101593.28;;;12.29;84.42
21781;BME280;52576;53.614;9.894;2022-07-29T00:51:12;101593.47;;;12.28;84.80
21781;BME280;52576;53.614;9.894;2022-07-29T00:52:15;101595.31;;;12.27;84.90
21781;BME280;52576;53.614;9.894;2022-07-29T00:53:19;101594.53;;;12.27;85.13
21781;BME280;52576;53.614;9.894;2022-07-29T00:54:24;101592.84;;;12.26;84.84
21781;BME280;52576;53.614;9.894;2022-07-29T00:55:26;101593.03;;;12.24;85.19
21781;BME280;52576;53.614;9.894;2022-07-29T00:56:30;101591.41;;;12.23;84.74
21781;BME280;52576;53.614;9.894;2022-07-29T00:57:32;101585.38;;;12.21;84.77
21781;BME280;52576;53.614;9.894;2022-07-29T00:58:35;101585.38;;;12.21;85.08
21781;BME280;52576;53.614;9.894;2022-07-29T00:59:37;101588.06;;;12.21;85.25
21781;BME280;52576;53.614;9.894;2022-07-29T01:00:41;101581.06;;;12.20;84.92
21781;BME280;52576;53.614;9.894;2022-07-29T01:01:46;101588.28;;;12.20;85.47
21781;BME280;52576;53.614;9.894;2022-07-29T01:02:48;101586.63;;;12.19;85.30
21781;BME280;52576;53.614;9.894;2022-07-29T01:03:51;101581.44;;;12.17;85.05
21781;BME280;52576;53.614;9.894;2022-07-29T01:04:53;101584.09;;;12.17;85.05
21781;BME280;52576;53.614;9.894;2022-07-29T01:05:59;101572.56;;;12.17;85.43
21781;BME280;52576;53.614;9.894;2022-07-29T01:07:03;101577.09;;;12.16;85.22
21781;BME280;52576;53.614;9.894;2022-07-29T01:08:06;101582.47;;;12.16;85.21
21781;BME280;52576;53.614;9.894;2022-07-29T01:09:10;101578.13;;;12.15;85.00
21781;BME280;52576;53.614;9.894;2022-07-29T01:10:15;101574.63;;;12.15;85.24
21781;BME280;52576;53.614;9.894;2022-07-29T01:11:19;101576.47;;;12.14;85.01
21781;BME280;52576;53.614;9.894;2022-07-29T01:12:23;101574.81;;;12.13;85.17
21781;BME280;52576;53.614;9.894;2022-07-29T01:13:27;101582.84;;;12.13;85.07
21781;BME280;52576;53.614;9.894;2022-07-29T01:14:30;101573.78;;;12.14;85.31
21781;BME280;52576;53.614;9.894;2022-07-29T01:15:34;101570.28;;;12.14;84.88
21781;BME280;52576;53.614;9.894;2022-07-29T01:16:53;101570.28;;;12.14;84.96
21781;BME280;52576;53.614;9.894;2022-07-29T01:18:02;101569.25;;;12.15;85.11
21781;BME280;52576;53.614;9.894;2022-07-29T01:19:15;101568.41;;;12.14;84.85
21781;BME280;52576;53.614;9.894;2022-07-29T01:20:31;101577.28;;;12.15;84.87
21781;BME280;52576;53.614;9.894;2022-07-29T01:21:50;101571.75;;;12.16;85.16
21781;BME280;52576;53.614;9.894;2022-07-29T01:23:21;101572.56;;;12.17;85.29
21781;BME280;52576;53.614;9.894;2022-07-29T01:24:47;101568.03;;;12.17;85.22
21781;BME280;52576;53.614;9.894;2022-07-29T01:26:23;101566.38;;;12.16;84.98
21781;BME280;52576;53.614;9.894;2022-07-29T01:27:41;101572.56;;;12.17;84.90
21781;BME280;52576;53.614;9.894;2022-07-29T01:28:58;101568.22;;;12.16;85.13
21781;BME280;52576;53.614;9.894;2022-07-29T01:30:08;101569.25;;;12.15;85.10
21781;BME280;52576;53.614;9.894;2022-07-29T01:31:19;101566.56;;;12.15;85.24
21781;BME280;52576;53.614;9.894;2022-07-29T01:32:29;101574.63;;;12.15;85.40
21781;BME280;52576;53.614;9.894;2022-07-29T01:33:38;101554.38;;;12.12;85.31
21781;BME280;52576;53.614;9.894;2022-07-29T01:34:54;101557.44;;;12.09;84.92
21781;BME280;52576;53.614;9.894;2022-07-29T01:35:59;101561.41;;;12.13;85.08
21781;BME280;52576;53.614;9.894;2022-07-29T01:37:08;101559.72;;;12.12;85.16
21781;BME280;52576;53.614;9.894;2022-07-29T01:38:18;101560.56;;;12.13;84.88
21781;BME280;52576;53.614;9.894;2022-07-29T01:39:26;101564.28;;;12.12;84.96
21781;BME280;52576;53.614;9.894;2022-07-29T01:40:36;101554.56;;;12.11;84.99
21781;BME280;52576;53.614;9.894;2022-07-29T01:41:48;101550.25;;;12.10;84.83
21781;BME280;52576;53.614;9.894;2022-07-29T01:42:54;101552.72;;;12.11;85.06
21781;BME280;52576;53.614;9.894;2022-07-29T01:44:01;101554.38;;;12.12;84.66
21781;BME280;52576;53.614;9.894;2022-07-29T01:45:09;101548.19;;;12.12;84.87
21781;BME280;52576;53.614;9.894;2022-07-29T01:46:14;101548.19;;;12.12;85.01
21781;BME280;52576;53.614;9.894;2022-07-29T01:47:25;101549.00;;;12.12;84.94
21781;BME280;52576;53.614;9.894;2022-07-29T01:48:34;101546.53;;;12.11;85.19
21781;BME280;52576;53.614;9.894;2022-07-29T01:49:42;101543.84;;;12.11;84.80
21781;BME280;52576;53.614;9.894;2022-07-29T01:50:48;101542.84;;;12.12;85.18
21781;BME280;52576;53.614;9.894;2022-07-29T01:51:54;101532.50;;;12.09;84.85
21781;BME280;52576;53.614;9.894;2022-07-29T01:53:00;101536.44;;;12.13;84.93
21781;BME280;52576;53.614;9.894;2022-07-29T01:54:08;101540.78;;;12.14;84.92
21781;BME280;52576;53.614;9.894;2022-07-29T01:55:14;101541.59;;;12.14;84.77
21781;BME280;52576;53.614;9.894;2022-07-29T01:56:23;101537.91;;;12.15;84.56
21781;BME280;52576;53.614;9.894;2022-07-29T01:57:29;101537.91;;;12.15;84.66
21781;BME280;52576;53.614;9.894;2022-07-29T01:58:35;101535.03;;;12.17;85.05
21781;BME280;52576;53.614;9.894;2022-07-29T01:59:40;101536.88;;;12.16;85.11
21781;BME280;52576;53.614;9.894;2022-07-29T02:00:45;101535.84;;;12.17;84.99
21781;BME280;52576;53.614;9.894;2022-07-29T02:01:50;101534.00;;;12.18;84.92
21781;BME280;52576;53.614;9.894;2022-07-29T02:02:55;101536.47;;;12.19;84.89
21781;BME280;52576;53.614;9.894;2022-07-29T02:03:59;101518.53;;;12.20;84.56
21781;BME280;52576;53.614;9.894;2022-07-29T02:05:06;101527.44;;;12.20;84.58
21781;BME280;52576;53.614;9.894;2022-07-29T02:06:14;101522.88;;;12.21;84.35
21781;BME280;52576;53.614;9.894;2022-07-29T02:07:19;101522.69;;;12.22;84.61
21781;BME280;52576;53.614;9.894;2022-07-29T02:08:24;101518.16;;;12.23;84.24
21781;BME280;52576;53.614;9.894;2022-07-29T02:09:28;101525.19;;;12.24;83.80
21781;BME280;52576;53.614;9.894;2022-07-29T02:10:33;101527.66;;;12.25;83.67
21781;BME280;52576;53.614;9.894;2022-07-29T02:11:37;101516.75;;;12.27;83.82
21781;BME280;52576;53.614;9.894;2022-07-29T02:12:42;101512.19;;;12.27;83.28
21781;BME280;52576;53.614;9.894;2022-07-29T02:13:52;101520.88;;;12.29;83.47
21781;BME280;52576;53.614;9.894;2022-07-29T02:15:00;101522.53;;;12.30;83.32
21781;BME280;52576;53.614;9.894;2022-07-29T02:16:05;101515.31;;;12.31;83.10
21781;BME280;52576;53.614;9.894;2022-07-29T02:17:10;101520.47;;;12.32;83.31
21781;BME280;52576;53.614;9.894;2022-07-29T02:18:17;101518.63;;;12.33;83.28
21781;BME280;52576;53.614;9.894;2022-07-29T02:19:23;101520.09;;;12.35;83.51
21781;BME280;52576;53.614;9.894;2022-07-29T02:20:27;101516.38;;;12.36;83.46
21781;BME280;52576;53.614;9.894;2022-07-29T02:21:32;101509.16;;;12.37;83.17
21781;BME280;52576;53.614;9.894;2022-07-29T02:22:37;101510.81;;;12.38;83.10
21781;BME280;52576;53.614;9.894;2022-07-29T02:23:40;101513.31;;;12.39;83.20
21781;BME280;52576;53.614;9.894;2022-07-29T02:24:52;101516.63;;;12.41;83.03
21781;BME280;52576;53.614;9.894;2022-07-29T02:25:57;101509.41;;;12.42;82.46
21781;BME280;52576;53.614;9.894;2022-07-29T02:27:02;101508.78;;;12.40;82.65
21781;BME280;52576;53.614;9.894;2022-07-29T02:28:06;101512.72;;;12.44;82.70
21781;BME280;52576;53.614;9.894;2022-07-29T02:29:11;101508.16;;;12.44;82.45
21781;BME280;52576;53.614;9.894;2022-07-29T02:30:17;101507.38;;;12.44;82.16
21781;BME280;52576;53.614;9.894;2022-07-29T02:31:24;101515.22;;;12.45;81.99
21781;BME280;52576;53.614;9.894;2022-07-29T02:32:28;101505.69;;;12.43;81.89
21781;BME280;52576;53.614;9.894;2022-07-29T02:33:32;101509.66;;;12.47;81.98
21781;BME280;52576;53.614;9.894;2022-07-29T02:34:37;101516.66;;;12.48;82.06
21781;BME280;52576;53.614;9.894;2022-07-29T02:35:43;101510.28;;;12.49;81.71
21781;BME280;52576;53.614;9.894;2022-07-29T02:36:48;101515.44;;;12.50;82.11
21781;BME280;52576;53.614;9.894;2022-07-29T02:37:52;101504.72;;;12.50;81.54
21781;BME280;52576;53.614;9.894;2022-07-29T02:39:11;101506.34;;;12.51;81.77
21781;BME280;52576;53.614;9.894;2022-07-29T02:40:15;101503.69;;;12.51;81.63
21781;BME280;52576;53.614;9.894;2022-07-29T02:41:22;101508.00;;;12.52;81.95
21781;BME280;52576;53.614;9.894;2022-07-29T02:42:26;101513.19;;;12.54;81.75
21781;BME280;52576;53.614;9.894;2022-07-29T02:43:30;101516.69;;;12.54;81.70
21781;BME280;52576;53.614;9.894;2022-07-29T02:44:34;101512.16;;;12.55;81.58
21781;BME280;52576;53.614;9.894;2022-07-29T02:45:39;101509.47;;;12.55;81.76
21781;BME280;52576;53.614;9.894;2022-07-29T02:46:45;101503.06;;;12.56;81.52
21781;BME280;52576;53.614;9.894;2022-07-29T02:47:49;101508.44;;;12.56;81.33
21781;BME280;52576;53.614;9.894;2022-07-29T02:48:58;101503.91;;;12.56;81.72
21781;BME280;52576;53.614;9.894;2022-07-29T02:50:06;101504.94;;;12.55;81.12
21781;BME280;52576;53.614;9.894;2022-07-29T02:51:12;101506.78;;;12.55;81.45
21781;BME280;52576;53.614;9.894;2022-07-29T02:52:41;101504.09;;;12.55;81.43
21781;BME280;52576;53.614;9.894;2022-07-29T02:53:49;101504.09;;;12.55;81.12
21781;BME280;52576;53.614;9.894;2022-07-29T02:54:55;101504.09;;;12.55;81.10
21781;BME280;52576;53.614;9.894;2022-07-29T02:56:03;101497.66;;;12.49;81.53
21781;BME280;52576;53.614;9.894;2022-07-29T02:57:17;101505.75;;;12.56;81.53
21781;BME280;52576;53.614;9.894;2022-07-29T02:58:25;101505.16;;;12.54;81.31
21781;BME280;52576;53.614;9.894;2022-07-29T02:59:33;101497.09;;;12.54;81.39
21781;BME280;52576;53.614;9.894;2022-07-29T03:00:40;101507.63;;;12.55;81.50
21781;BME280;52576;53.614;9.894;2022-07-29T03:01:43;101503.91;;;12.56;81.42
21781;BME280;52576;53.614;9.894;2022-07-29T03:02:50;101499.59;;;12.55;81.19
21781;BME280;52576;53.614;9.894;2022-07-29T03:03:53;101502.06;;;12.57;81.22
21781;BME280;52576;53.614;9.894;2022-07-29T03:04:57;101492.34;;;12.56;81.17
21781;BME280;52576;53.614;9.894;2022-07-29T03:06:02;101494.22;;;12.55;81.48
21781;BME280;52576;53.614;9.894;2022-07-29T03:07:06;101495.22;;;12.54;81.51
21781;BME280;52576;53.614;9.894;2022-07-29T03:08:11;101502.47;;;12.54;81.33
21781;BME280;52576;53.614;9.894;2022-07-29T03:09:14;101495.22;;;12.54;81.61
21781;BME280;52576;53.614;9.894;2022-07-29T03:10:17;101496.91;;;12.55;81.60
21781;BME280;52576;53.614;9.894;2022-07-29T03:11:21;101489.84;;;12.54;81.33
21781;BME280;52576;53.614;9.894;2022-07-29T03:12:44;101492.53;;;12.54;81.42
21781;BME280;52576;53.614;9.894;2022-07-29T03:13:48;101489.84;;;12.54;81.26
21781;BME280;52576;53.614;9.894;2022-07-29T03:14:51;101492.53;;;12.54;81.13
21781;BME280;52576;53.614;9.894;2022-07-29T03:15:56;101491.72;;;12.54;81.50
21781;BME280;52576;53.614;9.894;2022-07-29T03:16:59;101496.06;;;12.55;81.72
21781;BME280;52576;53.614;9.894;2022-07-29T03:18:03;101492.34;;;12.56;81.23
21781;BME280;52576;53.614;9.894;2022-07-29T03:19:07;101496.06;;;12.55;81.25
21781;BME280;52576;53.614;9.894;2022-07-29T03:20:11;101494.22;;;12.55;81.64
21781;BME280;52576;53.614;9.894;2022-07-29T03:21:14;101502.25;;;12.55;81.34
21781;BME280;52576;53.614;9.894;2022-07-29T03:22:17;101497.69;;;12.56;81.27
21781;BME280;52576;53.614;9.894;2022-07-29T03:23:20;101502.25;;;12.55;81.94
21781;BME280;52576;53.614;9.894;2022-07-29T03:24:26;101495.66;;;12.58;81.87
21781;BME280;52576;53.614;9.894;2022-07-29T03:25:28;101498.34;;;12.58;81.61
21781;BME280;52576;53.614;9.894;2022-07-29T03:26:31;101504.53;;;12.58;81.81
21781;BME280;52576;53.614;9.894;2022-07-29T03:27:34;101504.34;;;12.60;82.00
21781;BME280;52576;53.614;9.894;2022-07-29T03:28:37;101498.13;;;12.59;82.56
21781;BME280;52576;53.614;9.894;2022-07-29T03:29:40;101491.75;;;12.60;82.26
21781;BME280;52576;53.614;9.894;2022-07-29T03:30:50;101490.94;;;12.60;82.58
21781;BME280;52576;53.614;9.894;2022-07-29T03:31:54;101489.88;;;12.61;82.65
21781;BME280;52576;53.614;9.894;2022-07-29T03:32:57;101489.88;;;12.61;82.95
21781;BME280;52576;53.614;9.894;2022-07-29T03:33:59;101492.56;;;12.61;83.27
21781;BME280;52576;53.614;9.894;2022-07-29T03:35:03;101491.56;;;12.62;83.11
21781;BME280;52576;53.614;9.894;2022-07-29T03:36:05;101485.34;;;12.61;82.91
21781;BME280;52576;53.614;9.894;2022-07-29T03:37:08;101485.34;;;12.61;83.23
21781;BME280;52576;53.614;9.894;2022-07-29T03:38:11;101486.19;;;12.62;83.08
21781;BME280;52576;53.614;9.894;2022-07-29T03:39:16;101489.09;;;12.60;82.66
21781;BME280;52576;53.614;9.894;2022-07-29T03:40:23;101487.19;;;12.61;82.43
21781;BME280;52576;53.614;9.894;2022-07-29T03:41:28;101489.09;;;12.60;82.32
21781;BME280;52576;53.614;9.894;2022-07-29T03:42:33;101486.41;;;12.60;82.24
21781;BME280;52576;53.614;9.894;2022-07-29T03:43:38;101486.41;;;12.60;82.42
21781;BME280;52576;53.614;9.894;2022-07-29T03:44:52;101481.84;;;12.61;82.22
21781;BME280;52576;53.614;9.894;2022-07-29T03:45:56;101482.88;;;12.60;82.07
21781;BME280;52576;53.614;9.894;2022-07-29T03:47:02;101479.16;;;12.61;81.94
21781;BME280;52576;53.614;9.894;2022-07-29T03:48:08;101485.34;;;12.61;81.89
21781;BME280;52576;53.614;9.894;2022-07-29T03:49:14;101480.00;;;12.61;82.24
21781;BME280;52576;53.614;9.894;2022-07-29T03:50:18;101478.16;;;12.62;81.93
21781;BME280;52576;53.614;9.894;2022-07-29T03:51:23;101481.63;;;12.62;82.11
21781;BME280;52576;53.614;9.894;2022-07-29T03:52:34;101484.16;;;12.64;82.03
21781;BME280;52576;53.614;9.894;2022-07-29T03:53:37;101486.81;;;12.64;81.80
21781;BME280;52576;53.614;9.894;2022-07-29T03:54:40;101477.75;;;12.65;81.57
21781;BME280;52576;53.614;9.894;2022-07-29T03:55:45;101483.94;;;12.66;81.85
21781;BME280;52576;53.614;9.894;2022-07-29T03:56:50;101486.63;;;12.66;81.84
21781;BME280;52576;53.614;9.894;2022-07-29T03:57:55;101478.38;;;12.67;81.57
21781;BME280;52576;53.614;9.894;2022-07-29T03:58:58;101485.38;;;12.68;81.89
21781;BME280;52576;53.614;9.894;2022-07-29T04:00:04;101480.84;;;12.69;81.97
21781;BME280;52576;53.614;9.894;2022-07-29T04:01:06;101481.69;;;12.69;81.96
21781;BME280;52576;53.614;9.894;2022-07-29T04:02:11;101483.34;;;12.70;81.74
21781;BME280;52576;53.614;9.894;2022-07-29T04:03:13;101483.97;;;12.72;82.17
21781;BME280;52576;53.614;9.894;2022-07-29T04:04:16;101482.28;;;12.71;82.23
21781;BME280;52576;53.614;9.894;2022-07-29T04:05:19;101483.97;;;12.72;82.05
21781;BME280;52576;53.614;9.894;2022-07-29T04:06:22;101485.59;;;12.73;81.92
21781;BME280;52576;53.614;9.894;2022-07-29T04:07:24;101486.25;;;12.75;81.86
21781;BME280;52576;53.614;9.894;2022-07-29T04:08:28;101478.19;;;12.75;81.70
21781;BME280;52576;53.614;9.894;2022-07-29T04:09:30;101479.84;;;12.76;81.57
21781;BME280;52576;53.614;9.894;2022-07-29T04:10:33;101486.88;;;12.77;81.75
21781;BME280;52576;53.614;9.894;2022-07-29T04:11:36;101480.47;;;12.78;81.67
21781;BME280;52576;53.614;9.894;2022-07-29T04:13:00;101484.81;;;12.79;81.55
21781;BME280;52576;53.614;9.894;2022-07-29T04:14:03;101491.00;;;12.80;81.98
21781;BME280;52576;53.614;9.894;2022-07-29T04:15:07;101488.13;;;12.81;81.95
21781;BME280;52576;53.614;9.894;2022-07-29T04:16:10;101484.63;;;12.81;81.72
21781;BME280;52576;53.614;9.894;2022-07-29T04:17:13;101496.81;;;12.83;81.87
21781;BME280;52576;53.614;9.894;2022-07-29T04:18:16;101489.59;;;12.84;81.89
21781;BME280;52576;53.614;9.894;2022-07-29T04:19:18;101484.00;;;12.85;81.84
21781;BME280;52576;53.614;9.894;2022-07-29T04:20:21;101489.19;;;12.87;81.57
21781;BME280;52576;53.614;9.894;2022-07-29T04:21:24;101482.16;;;12.86;81.36
21781;BME280;52576;53.614;9.894;2022-07-29T04:22:27;101486.28;;;12.88;81.63
21781;BME280;52576;53.614;9.894;2022-07-29T04:23:29;101485.28;;;12.89;81.52
21781;BME280;52576;53.614;9.894;2022-07-29T04:24:34;101486.94;;;12.90;81.15
21781;BME280;52576;53.614;9.894;2022-07-29T04:25:37;101485.88;;;12.91;81.18
21781;BME280;52576;53.614;9.894;2022-07-29T04:26:41;101487.56;;;12.92;81.27
21781;BME280;52576;53.614;9.894;2022-07-29T04:27:43;101490.03;;;12.94;81.30
21781;BME280;52576;53.614;9.894;2022-07-29T04:29:00;101485.50;;;12.94;81.03
21781;BME280;52576;53.614;9.894;2022-07-29T04:30:04;101480.72;;;12.96;81.14
21781;BME280;52576;53.614;9.894;2022-07-29T04:31:06;101480.72;;;12.96;80.96
21781;BME280;52576;53.614;9.894;2022-07-29T04:32:10;101474.75;;;12.94;80.97
21781;BME280;52576;53.614;9.894;2022-07-29T04:33:13;101485.09;;;12.97;81.49
21781;BME280;52576;53.614;9.894;2022-07-29T04:34:16;101483.69;;;13.01;81.14
21781;BME280;52576;53.614;9.894;2022-07-29T04:35:20;101481.63;;;13.03;81.45
21781;BME280;52576;53.614;9.894;2022-07-29T04:36:23;101480.59;;;13.04;81.25
21781;BME280;52576;53.614;9.894;2022-07-29T04:37:30;101483.09;;;13.06;81.40
21781;BME280;52576;53.614;9.894;2022-07-29T04:38:33;101481.03;;;13.08;81.33
21781;BME280;52576;53.614;9.894;2022-07-29T04:39:35;101480.81;;;13.09;81.24
21781;BME280;52576;53.614;9.894;2022-07-29T04:40:38;101486.81;;;13.11;81.14
21781;BME280;52576;53.614;9.894;2022-07-29T04:41:40;101484.94;;;13.12;81.24
21781;BME280;52576;53.614;9.894;2022-07-29T04:42:43;101479.38;;;13.13;81.22
21781;BME280;52576;53.614;9.894;2022-07-29T04:43:48;101480.84;;;13.16;80.93
21781;BME280;52576;53.614;9.894;2022-07-29T04:44:52;101486.00;;;13.17;80.98
21781;BME280;52576;53.614;9.894;2022-07-29T04:45:54;101481.28;;;13.19;80.92
21781;BME280;52576;53.614;9.894;2022-07-29T04:46:57;101481.06;;;13.21;80.66
21781;BME280;52576;53.614;9.894;2022-07-29T04:47:59;101479.00;;;13.23;80.59
21781;BME280;52576;53.614;9.894;2022-07-29T04:49:04;101481.47;;;13.24;80.82
21781;BME280;52576;53.614;9.894;2022-07-29T04:50:07;101482.09;;;13.26;80.59
21781;BME280;52576;53.614;9.894;2022-07-29T04:51:10;101489.13;;;13.27;80.40
21781;BME280;52576;53.614;9.894;2022-07-29T04:52:12;101487.88;;;13.30;80.43
21781;BME280;52576;53.614;9.894;2022-07-29T04:53:16;101487.66;;;13.31;80.39
21781;BME280;52576;53.614;9.894;2022-07-29T04:54:18;101483.75;;;13.34;80.45
21781;BME280;52576;53.614;9.894;2022-07-29T04:55:21;101479.81;;;13.36;79.98
21781;BME280;52576;53.614;9.894;2022-07-29T04:56:23;101486.88;;;13.37;80.54
21781;BME280;52576;53.614;9.894;2022-07-29T04:57:26;101491.00;;;13.40;80.32
21781;BME280;52576;53.614;9.894;2022-07-29T04:58:28;101485.63;;;13.40;79.94
21781;BME280;52576;53.614;9.894;2022-07-29T04:59:31;101483.56;;;13.42;79.92
21781;BME280;52576;53.614;9.894;2022-07-29T05:00:33;101483.34;;;13.43;80.05
21781;BME280;52576;53.614;9.894;2022-07-29T05:01:36;101485.03;;;13.44;79.75
21781;BME280;52576;53.614;9.894;2022-07-29T05:02:39;101471.81;;;13.43;79.62
21781;BME280;52576;53.614;9.894;2022-07-29T05:03:42;101476.56;;;13.47;79.77
21781;BME280;52576;53.614;9.894;2022-07-29T05:04:45;101484.41;;;13.49;79.66
21781;BME280;52576;53.614;9.894;2022-07-29T05:05:48;101484.19;;;13.50;79.89
21781;BME280;52576;53.614;9.894;2022-07-29T05:06:50;101485.84;;;13.51;79.87
21781;BME280;52576;53.614;9.894;2022-07-29T05:07:54;101488.13;;;13.54;80.05
21781;BME280;52576;53.614;9.894;2022-07-29T05:08:56;101487.09;;;13.55;79.96
21781;BME280;52576;53.614;9.894;2022-07-29T05:09:59;101488.56;;;13.58;79.91
21781;BME280;52576;53.614;9.894;2022-07-29T05:11:02;101496.41;;;13.59;79.82
21781;BME280;52576;53.614;9.894;2022-07-29T05:12:14;101497.00;;;13.61;79.83
21781;BME280;52576;53.614;9.894;2022-07-29T05:13:16;101494.94;;;13.63;80.00
21781;BME280;52576;53.614;9.894;2022-07-29T05:14:19;101497.44;;;13.65;79.80
21781;BME280;52576;53.614;9.894;2022-07-29T05:15:22;101497.22;;;13.66;79.51
21781;BME280;52576;53.614;9.894;2022-07-29T05:16:25;101497.84;;;13.68;79.60
21781;BME280;52576;53.614;9.894;2022-07-29T05:17:27;101494.16;;;13.69;79.75
21781;BME280;52576;53.614;9.894;2022-07-29T05:18:30;101496.00;;;13.69;79.79
21781;BME280;52576;53.614;9.894;2022-07-29T05:19:32;101499.31;;;13.71;79.63
21781;BME280;52576;53.614;9.894;2022-07-29T05:20:41;101500.13;;;13.71;79.54
21781;BME280;52576;53.614;9.894;2022-07-29T05:21:44;101498.47;;;13.70;79.17
21781;BME280;52576;53.614;9.894;2022-07-29T05:22:46;101501.59;;;13.74;79.13
21781;BME280;52576;53.614;9.894;2022-07-29T05:23:50;101492.69;;;13.73;79.54
21781;BME280;52576;53.614;9.894;2022-07-29T05:24:52;101500.53;;;13.75;79.46
21781;BME280;52576;53.614;9.894;2022-07-29T05:25:55;101491.47;;;13.76;79.23
21781;BME280;52576;53.614;9.894;2022-07-29T05:26:57;101486.88;;;13.76;79.24
21781;BME280;52576;53.614;9.894;2022-07-29T05:28:00;101493.09;;;13.77;78.99
21781;BME280;52576;53.614;9.894;2022-07-29T05:29:02;101498.06;;;13.80;78.91
21781;BME280;52576;53.614;9.894;2022-07-29T05:30:06;101493.50;;;13.80;79.35
21781;BME280;52576;53.614;9.894;2022-07-29T05:31:09;101503.03;;;13.83;79.21
21781;BME280;52576;53.614;9.894;2022-07-29T05:32:12;101497.47;;;13.84;79.30
21781;BME280;52576;53.614;9.894;2022-07-29T05:33:15;101498.88;;;13.87;78.89
21781;BME280;52576;53.614;9.894;2022-07-29T05:34:37;101499.50;;;13.89;78.95
21781;BME280;52576;53.614;9.894;2022-07-29T05:35:53;101498.88;;;13.94;78.87
21781;BME280;52576;53.614;9.894;2022-07-29T05:37:01;101499.50;;;13.96;78.74
21781;BME280;52576;53.614;9.894;2022-07-29T05:38:03;101494.75;;;13.98;78.93
21781;BME280;52576;53.614;9.894;2022-07-29T05:39:08;101498.88;;;14.00;78.67
21781;BME280;52576;53.614;9.894;2022-07-29T05:40:10;101497.66;;;14.03;78.63
21781;BME280;52576;53.614;9.894;2022-07-29T05:41:13;101499.28;;;14.04;78.19